N737M WIHH-WSSL
Flight info
| Callsign | N737M |
|---|---|
| Flight time | 1h 21m |
| Altitude | 38000 |
| Route | DOLT1E DOLTA A585 PLB G579 SJ DCT PONJO DCT RECHI DCT SETHI |
| Aircraft | B738/M-SDE2E3FGHIRWXY/LB1 |
Departure
| Time | 2026-05-04 09:30 |
|---|---|
| Airport | Halim Perdanakusuma International Airport (WIHH) |
Arrival
| Time | 2026-05-04 10:51 |
|---|---|
| Airport | Seletar Airport (WSSL) |
| Time | Latitude | Longitude | Altitude | Speed | Heading |
|---|---|---|---|---|---|
| 2026-05-04 09:04 | -6.26660 | 106.88540 | 89 ft | 0 kts | 339° |
| 2026-05-04 09:15 | -6.26679 | 106.88545 | 89 ft | 4 kts | 4° |
| 2026-05-04 09:15 | -6.26701 | 106.88536 | 89 ft | 4 kts | 51° |
| 2026-05-04 09:17 | -6.26710 | 106.88524 | 88 ft | 0 kts | 65° |
| 2026-05-04 09:25 | -6.26549 | 106.89354 | 89 ft | 23 kts | 64° |
| 2026-05-04 09:25 | -6.26481 | 106.89499 | 90 ft | 23 kts | 66° |
| 2026-05-04 09:26 | -6.26416 | 106.89646 | 89 ft | 25 kts | 65° |
| 2026-05-04 09:26 | -6.26341 | 106.89804 | 89 ft | 25 kts | 65° |
| 2026-05-04 09:26 | -6.26271 | 106.89956 | 91 ft | 23 kts | 65° |
| 2026-05-04 09:26 | -6.26204 | 106.90100 | 91 ft | 22 kts | 65° |
| 2026-05-04 09:27 | -6.26142 | 106.90233 | 91 ft | 18 kts | 63° |
| 2026-05-04 09:27 | -6.26076 | 106.90284 | 92 ft | 6 kts | 62° |
| 2026-05-04 09:27 | -6.26083 | 106.90306 | 95 ft | 1 kts | 150° |
| 2026-05-04 09:27 | -6.26103 | 106.90305 | 92 ft | 7 kts | 202° |
| 2026-05-04 09:28 | -6.26126 | 106.90273 | 92 ft | 0 kts | 246° |
| 2026-05-04 09:29 | -6.26150 | 106.90218 | 93 ft | 34 kts | 245° |
| 2026-05-04 09:29 | -6.26350 | 106.89784 | 89 ft | 101 kts | 245° |
| 2026-05-04 09:29 | -6.26729 | 106.88963 | 89 ft | 155 kts | 245° |
| 2026-05-04 09:30 | -6.27061 | 106.88245 | 113 ft | 184 kts | 244° |
| 2026-05-04 09:30 | -6.27777 | 106.86706 | 997 ft | 180 kts | 246° |
| 2026-05-04 09:30 | -6.28118 | 106.85955 | 1500 ft | 175 kts | 246° |
| 2026-05-04 09:30 | -6.28812 | 106.84430 | 2126 ft | 194 kts | 246° |
| 2026-05-04 09:31 | -6.29198 | 106.83582 | 2281 ft | 210 kts | 246° |
| 2026-05-04 09:31 | -6.29613 | 106.82119 | 2439 ft | 228 kts | 268° |
| 2026-05-04 09:31 | -6.29653 | 106.80473 | 2660 ft | 242 kts | 269° |
| 2026-05-04 09:31 | -6.29707 | 106.78742 | 2924 ft | 257 kts | 268° |
| 2026-05-04 09:32 | -6.29778 | 106.76894 | 3247 ft | 269 kts | 268° |
| 2026-05-04 09:32 | -6.29857 | 106.75021 | 3483 ft | 269 kts | 268° |
| 2026-05-04 09:34 | -6.34251 | 106.62789 | 7186 ft | 285 kts | 234° |
| 2026-05-04 09:34 | -6.35408 | 106.61150 | 7820 ft | 289 kts | 234° |
| 2026-05-04 09:34 | -6.36581 | 106.59483 | 8443 ft | 295 kts | 234° |
| 2026-05-04 09:34 | -6.37767 | 106.57792 | 9153 ft | 297 kts | 234° |
| 2026-05-04 09:35 | -6.38946 | 106.56106 | 9856 ft | 300 kts | 234° |
| 2026-05-04 09:35 | -6.40160 | 106.54371 | 10387 ft | 310 kts | 234° |
| 2026-05-04 09:35 | -6.41447 | 106.52533 | 10532 ft | 333 kts | 234° |
| 2026-05-04 09:35 | -6.42608 | 106.50441 | 10666 ft | 355 kts | 252° |
| 2026-05-04 09:37 | -6.30807 | 106.40234 | 14165 ft | 388 kts | 352° |
| 2026-05-04 09:37 | -6.28135 | 106.39791 | 14704 ft | 391 kts | 351° |
| 2026-05-04 09:38 | -6.25447 | 106.39331 | 15222 ft | 394 kts | 351° |
| 2026-05-04 09:38 | -6.22737 | 106.38854 | 15760 ft | 397 kts | 351° |
| 2026-05-04 09:38 | -6.20007 | 106.38366 | 16284 ft | 400 kts | 351° |
| 2026-05-04 09:38 | -6.17256 | 106.37870 | 16798 ft | 403 kts | 351° |
| 2026-05-04 09:39 | -6.14478 | 106.37369 | 17294 ft | 407 kts | 351° |
| 2026-05-04 09:39 | -6.11678 | 106.36864 | 17772 ft | 411 kts | 351° |
| 2026-05-04 09:39 | -6.08862 | 106.36308 | 18226 ft | 415 kts | 345° |
| 2026-05-04 09:39 | -6.06205 | 106.35136 | 18625 ft | 420 kts | 333° |
| 2026-05-04 09:40 | -6.03625 | 106.33757 | 19082 ft | 421 kts | 333° |
| 2026-05-04 09:40 | -6.01027 | 106.32370 | 19499 ft | 424 kts | 333° |
| 2026-05-04 09:40 | -5.98409 | 106.30984 | 19898 ft | 427 kts | 334° |
| 2026-05-04 09:40 | -5.95765 | 106.29597 | 20304 ft | 429 kts | 334° |
| 2026-05-04 09:41 | -5.93106 | 106.28214 | 20710 ft | 432 kts | 334° |
| 2026-05-04 09:42 | -5.74013 | 106.18355 | 23253 ft | 450 kts | 334° |
| 2026-05-04 09:43 | -5.71224 | 106.16915 | 23567 ft | 452 kts | 334° |
| 2026-05-04 09:43 | -5.68418 | 106.15467 | 23853 ft | 454 kts | 334° |
| 2026-05-04 09:43 | -5.65603 | 106.14014 | 24158 ft | 455 kts | 334° |
| 2026-05-04 09:43 | -5.62784 | 106.12560 | 24447 ft | 457 kts | 334° |
| 2026-05-04 09:44 | -5.59955 | 106.11100 | 24735 ft | 458 kts | 334° |
| 2026-05-04 09:44 | -5.57115 | 106.09635 | 25012 ft | 460 kts | 334° |
| 2026-05-04 09:44 | -5.54263 | 106.08164 | 25285 ft | 461 kts | 334° |
| 2026-05-04 09:46 | -5.33536 | 105.99071 | 27048 ft | 469 kts | 346° |
| 2026-05-04 09:46 | -5.30403 | 105.98157 | 27294 ft | 470 kts | 345° |
| 2026-05-04 09:46 | -5.27265 | 105.97204 | 27514 ft | 472 kts | 344° |
| 2026-05-04 09:47 | -5.24167 | 105.96229 | 27721 ft | 474 kts | 344° |
| 2026-05-04 09:47 | -5.21017 | 105.95216 | 27931 ft | 475 kts | 343° |
| 2026-05-04 09:49 | -4.99826 | 105.85335 | 29276 ft | 488 kts | 330° |
| 2026-05-04 09:49 | -4.96908 | 105.83604 | 29567 ft | 487 kts | 331° |
| 2026-05-04 09:49 | -4.93986 | 105.81899 | 29881 ft | 486 kts | 332° |
| 2026-05-04 09:51 | -4.76442 | 105.71895 | 31393 ft | 481 kts | 332° |
| 2026-05-04 09:51 | -4.73568 | 105.70260 | 31605 ft | 482 kts | 332° |
| 2026-05-04 09:51 | -4.70611 | 105.68576 | 31826 ft | 482 kts | 332° |
| 2026-05-04 09:51 | -4.67737 | 105.66939 | 32101 ft | 481 kts | 332° |
| 2026-05-04 09:52 | -4.64830 | 105.65284 | 32404 ft | 480 kts | 332° |
| 2026-05-04 09:52 | -4.61931 | 105.63633 | 32680 ft | 479 kts | 331° |
| 2026-05-04 09:52 | -4.59035 | 105.61984 | 32981 ft | 478 kts | 331° |
| 2026-05-04 09:52 | -4.56147 | 105.60340 | 33283 ft | 477 kts | 331° |
| 2026-05-04 09:53 | -4.53263 | 105.58698 | 33540 ft | 477 kts | 331° |
| 2026-05-04 09:53 | -4.50383 | 105.57059 | 33787 ft | 477 kts | 331° |
| 2026-05-04 09:53 | -4.47497 | 105.55417 | 34035 ft | 476 kts | 331° |
| 2026-05-04 09:53 | -4.44622 | 105.53781 | 34298 ft | 475 kts | 331° |
| 2026-05-04 09:54 | -4.41749 | 105.52146 | 34570 ft | 474 kts | 331° |
| 2026-05-04 09:54 | -4.38889 | 105.50519 | 34834 ft | 473 kts | 331° |
| 2026-05-04 09:54 | -4.36032 | 105.48893 | 35084 ft | 472 kts | 331° |
| 2026-05-04 09:54 | -4.33174 | 105.47268 | 35340 ft | 471 kts | 331° |
| 2026-05-04 09:55 | -4.30327 | 105.45648 | 35595 ft | 470 kts | 331° |
| 2026-05-04 09:55 | -4.27485 | 105.44032 | 35844 ft | 469 kts | 331° |
| 2026-05-04 09:55 | -4.24645 | 105.42417 | 36087 ft | 469 kts | 331° |
| 2026-05-04 09:55 | -4.21811 | 105.40805 | 36336 ft | 468 kts | 331° |
| 2026-05-04 09:56 | -4.18984 | 105.39197 | 36578 ft | 467 kts | 331° |
| 2026-05-04 09:56 | -4.16158 | 105.37591 | 36813 ft | 466 kts | 331° |
| 2026-05-04 09:56 | -4.13337 | 105.35987 | 37043 ft | 466 kts | 331° |
| 2026-05-04 09:56 | -4.10522 | 105.34386 | 37282 ft | 465 kts | 331° |
| 2026-05-04 09:57 | -4.07711 | 105.32788 | 37515 ft | 464 kts | 331° |
| 2026-05-04 09:57 | -4.04906 | 105.31194 | 37735 ft | 464 kts | 331° |
| 2026-05-04 09:57 | -4.02098 | 105.29597 | 37856 ft | 465 kts | 331° |
| 2026-05-04 09:58 | -3.96487 | 105.26408 | 37850 ft | 467 kts | 331° |
| 2026-05-04 09:58 | -3.90863 | 105.23214 | 37848 ft | 463 kts | 331° |
| 2026-05-04 10:00 | -3.68589 | 105.10680 | 37860 ft | 458 kts | 332° |
| 2026-05-04 10:04 | -3.29241 | 104.88542 | 37854 ft | 468 kts | 332° |
| 2026-05-04 10:04 | -3.23575 | 104.85355 | 37853 ft | 467 kts | 332° |
| 2026-05-04 10:05 | -3.17925 | 104.82178 | 37854 ft | 465 kts | 332° |
| 2026-05-04 10:05 | -3.12292 | 104.79011 | 37856 ft | 464 kts | 332° |
| 2026-05-04 10:06 | -3.06677 | 104.75855 | 37861 ft | 462 kts | 332° |
| 2026-05-04 10:06 | -3.01078 | 104.72708 | 37855 ft | 461 kts | 332° |
| 2026-05-04 10:08 | -2.83973 | 104.64425 | 37861 ft | 454 kts | 350° |
| 2026-05-04 10:08 | -2.80866 | 104.63850 | 37869 ft | 454 kts | 351° |
| 2026-05-04 10:08 | -2.74641 | 104.62746 | 37865 ft | 454 kts | 351° |
| 2026-05-04 10:09 | -2.68418 | 104.61614 | 37863 ft | 455 kts | 351° |
| 2026-05-04 10:09 | -2.62187 | 104.60450 | 37860 ft | 456 kts | 351° |
| 2026-05-04 10:10 | -2.55946 | 104.59272 | 37847 ft | 457 kts | 351° |
| 2026-05-04 10:10 | -2.49686 | 104.58089 | 37866 ft | 458 kts | 351° |
| 2026-05-04 10:11 | -2.43407 | 104.56903 | 37866 ft | 460 kts | 351° |
| 2026-05-04 10:11 | -2.37102 | 104.55713 | 37864 ft | 462 kts | 351° |
| 2026-05-04 10:12 | -2.30773 | 104.54518 | 37859 ft | 464 kts | 351° |
| 2026-05-04 10:12 | -2.24420 | 104.53320 | 37858 ft | 465 kts | 351° |
| 2026-05-04 10:13 | -2.18056 | 104.52119 | 37846 ft | 466 kts | 351° |
| 2026-05-04 10:13 | -2.11687 | 104.50917 | 37861 ft | 466 kts | 351° |
| 2026-05-04 10:14 | -2.05309 | 104.49714 | 37860 ft | 467 kts | 351° |
| 2026-05-04 10:16 | -1.79777 | 104.44898 | 37863 ft | 466 kts | 351° |
| 2026-05-04 10:16 | -1.73406 | 104.43697 | 37857 ft | 466 kts | 351° |
| 2026-05-04 10:17 | -1.67085 | 104.42505 | 37857 ft | 465 kts | 351° |
| 2026-05-04 10:19 | -1.41708 | 104.37721 | 37855 ft | 463 kts | 350° |
| 2026-05-04 10:19 | -1.35370 | 104.36526 | 37859 ft | 463 kts | 350° |
| 2026-05-04 10:20 | -1.29026 | 104.35331 | 37859 ft | 464 kts | 350° |
| 2026-05-04 10:20 | -1.23742 | 104.34335 | 37859 ft | 464 kts | 350° |
| 2026-05-04 10:21 | -1.17389 | 104.33137 | 37861 ft | 465 kts | 350° |
| 2026-05-04 10:21 | -1.11033 | 104.31940 | 37861 ft | 466 kts | 350° |
| 2026-05-04 10:22 | -1.01467 | 104.30137 | 37863 ft | 467 kts | 351° |
| 2026-05-04 10:23 | -0.95067 | 104.28931 | 37860 ft | 468 kts | 351° |
| 2026-05-04 10:25 | -0.69650 | 104.24139 | 37836 ft | 436 kts | 350° |
| 2026-05-04 10:25 | -0.66719 | 104.23587 | 37837 ft | 422 kts | 350° |
| 2026-05-04 10:25 | -0.63868 | 104.23050 | 37848 ft | 414 kts | 350° |
| 2026-05-04 10:26 | -0.58151 | 104.21974 | 37878 ft | 422 kts | 350° |
| 2026-05-04 10:26 | -0.55256 | 104.21425 | 37750 ft | 424 kts | 350° |
| 2026-05-04 10:26 | -0.52366 | 104.20858 | 37222 ft | 424 kts | 350° |
| 2026-05-04 10:26 | -0.49443 | 104.20276 | 36338 ft | 434 kts | 350° |
| 2026-05-04 10:27 | -0.46432 | 104.19673 | 35319 ft | 448 kts | 350° |
| 2026-05-04 10:27 | -0.43335 | 104.19054 | 34376 ft | 459 kts | 350° |
| 2026-05-04 10:27 | -0.40169 | 104.18421 | 33479 ft | 467 kts | 350° |
| 2026-05-04 10:27 | -0.36975 | 104.17784 | 32491 ft | 468 kts | 350° |
| 2026-05-04 10:28 | -0.33815 | 104.17154 | 31286 ft | 472 kts | 350° |
| 2026-05-04 10:28 | -0.30575 | 104.16509 | 30065 ft | 478 kts | 350° |
| 2026-05-04 10:28 | -0.27320 | 104.15862 | 28984 ft | 475 kts | 350° |
| 2026-05-04 10:28 | -0.24101 | 104.15220 | 28180 ft | 466 kts | 350° |
| 2026-05-04 10:29 | -0.20958 | 104.14594 | 27424 ft | 457 kts | 350° |
| 2026-05-04 10:29 | -0.17863 | 104.13978 | 26612 ft | 450 kts | 350° |
| 2026-05-04 10:29 | -0.14811 | 104.13371 | 25757 ft | 445 kts | 350° |
| 2026-05-04 10:29 | -0.11789 | 104.12770 | 24952 ft | 440 kts | 350° |
| 2026-05-04 10:30 | -0.08805 | 104.12177 | 24253 ft | 433 kts | 350° |
| 2026-05-04 10:30 | -0.05889 | 104.11597 | 23727 ft | 423 kts | 350° |
| 2026-05-04 10:30 | -0.03021 | 104.11027 | 23180 ft | 419 kts | 350° |
| 2026-05-04 10:30 | -0.00163 | 104.10460 | 22616 ft | 418 kts | 350° |
| 2026-05-04 10:31 | 0.02677 | 104.09895 | 22093 ft | 414 kts | 350° |
| 2026-05-04 10:31 | 0.05496 | 104.09335 | 21591 ft | 412 kts | 350° |
| 2026-05-04 10:32 | 0.22041 | 104.06046 | 18626 ft | 398 kts | 350° |
| 2026-05-04 10:33 | 0.24756 | 104.05506 | 18130 ft | 397 kts | 351° |
| 2026-05-04 10:33 | 0.27458 | 104.04969 | 17580 ft | 395 kts | 350° |
| 2026-05-04 10:33 | 0.30142 | 104.04439 | 17101 ft | 391 kts | 351° |
| 2026-05-04 10:33 | 0.32802 | 104.03917 | 16625 ft | 388 kts | 351° |
| 2026-05-04 10:34 | 0.35442 | 104.03399 | 16151 ft | 385 kts | 350° |
| 2026-05-04 10:34 | 0.38060 | 104.02885 | 15682 ft | 382 kts | 350° |
| 2026-05-04 10:34 | 0.40660 | 104.02374 | 15208 ft | 380 kts | 350° |
| 2026-05-04 10:34 | 0.43247 | 104.01866 | 14732 ft | 378 kts | 350° |
| 2026-05-04 10:35 | 0.45818 | 104.01361 | 14262 ft | 376 kts | 350° |
| 2026-05-04 10:35 | 0.48383 | 104.00857 | 13791 ft | 374 kts | 350° |
| 2026-05-04 10:35 | 0.50906 | 104.00361 | 13547 ft | 366 kts | 350° |
| 2026-05-04 10:35 | 0.53364 | 103.99877 | 12939 ft | 367 kts | 350° |
| 2026-05-04 10:36 | 0.55878 | 103.99384 | 12375 ft | 367 kts | 349° |
| 2026-05-04 10:36 | 0.58376 | 103.98889 | 11983 ft | 363 kts | 349° |
| 2026-05-04 10:36 | 0.60837 | 103.98396 | 11540 ft | 360 kts | 349° |
| 2026-05-04 10:36 | 0.63287 | 103.97905 | 11101 ft | 357 kts | 349° |
| 2026-05-04 10:37 | 0.65708 | 103.97420 | 10823 ft | 350 kts | 349° |
| 2026-05-04 10:37 | 0.68059 | 103.96949 | 10666 ft | 339 kts | 349° |
| 2026-05-04 10:37 | 0.70341 | 103.96492 | 10510 ft | 330 kts | 349° |
| 2026-05-04 10:37 | 0.72555 | 103.96049 | 10368 ft | 320 kts | 349° |
| 2026-05-04 10:39 | 0.84696 | 103.93467 | 9092 ft | 278 kts | 348° |
| 2026-05-04 10:39 | 0.86574 | 103.93066 | 8814 ft | 275 kts | 348° |
| 2026-05-04 10:39 | 0.88442 | 103.92667 | 8517 ft | 274 kts | 348° |
| 2026-05-04 10:40 | 0.90306 | 103.92269 | 8241 ft | 273 kts | 348° |
| 2026-05-04 10:40 | 0.92162 | 103.91874 | 7962 ft | 273 kts | 348° |
| 2026-05-04 10:40 | 0.93988 | 103.91484 | 7695 ft | 272 kts | 348° |
| 2026-05-04 10:40 | 0.95861 | 103.91085 | 7419 ft | 271 kts | 348° |
| 2026-05-04 10:41 | 0.97682 | 103.90697 | 7149 ft | 271 kts | 348° |
| 2026-05-04 10:41 | 0.99523 | 103.90306 | 6881 ft | 270 kts | 348° |
| 2026-05-04 10:41 | 1.01362 | 103.89919 | 6616 ft | 270 kts | 348° |
| 2026-05-04 10:41 | 1.03197 | 103.89535 | 6351 ft | 269 kts | 348° |
| 2026-05-04 10:42 | 1.05032 | 103.89150 | 6064 ft | 269 kts | 348° |
| 2026-05-04 10:42 | 1.06861 | 103.88766 | 5777 ft | 269 kts | 348° |
| 2026-05-04 10:42 | 1.08688 | 103.88383 | 5502 ft | 268 kts | 348° |
| 2026-05-04 10:42 | 1.10509 | 103.88000 | 5226 ft | 267 kts | 348° |
| 2026-05-04 10:43 | 1.12324 | 103.87619 | 5005 ft | 265 kts | 348° |
| 2026-05-04 10:44 | 1.23215 | 103.84085 | 4033 ft | 223 kts | 305° |
| 2026-05-04 10:45 | 1.24062 | 103.82803 | 3799 ft | 217 kts | 303° |
| 2026-05-04 10:45 | 1.24857 | 103.81572 | 3584 ft | 205 kts | 303° |
| 2026-05-04 10:45 | 1.25622 | 103.80394 | 3387 ft | 198 kts | 304° |
| 2026-05-04 10:45 | 1.26357 | 103.79266 | 3166 ft | 190 kts | 304° |
| 2026-05-04 10:46 | 1.27268 | 103.78370 | 2926 ft | 183 kts | 339° |
| 2026-05-04 10:46 | 1.28493 | 103.78303 | 2789 ft | 180 kts | 14° |
| 2026-05-04 10:46 | 1.29627 | 103.78849 | 2619 ft | 182 kts | 31° |
| 2026-05-04 10:46 | 1.30676 | 103.79524 | 2405 ft | 175 kts | 32° |
| 2026-05-04 10:47 | 1.31651 | 103.80163 | 2236 ft | 159 kts | 32° |
| 2026-05-04 10:47 | 1.32542 | 103.80744 | 2017 ft | 151 kts | 32° |
| 2026-05-04 10:47 | 1.33394 | 103.81298 | 1815 ft | 148 kts | 32° |
| 2026-05-04 10:47 | 1.34273 | 103.81871 | 1625 ft | 149 kts | 33° |
| 2026-05-04 10:49 | 1.40249 | 103.85823 | 249 ft | 144 kts | 32° |
| 2026-05-04 10:49 | 1.41102 | 103.86376 | 62 ft | 146 kts | 32° |
| 2026-05-04 10:50 | 1.41856 | 103.86869 | 52 ft | 91 kts | 33° |
| 2026-05-04 10:51 | 1.42020 | 103.87166 | 54 ft | 13 kts | 213° |
| 2026-05-04 10:52 | 1.41962 | 103.87164 | 49 ft | 6 kts | 116° |
| 2026-05-04 10:52 | 1.41943 | 103.87193 | 48 ft | 5 kts | 124° |
| 2026-05-04 10:52 | 1.41908 | 103.87222 | 52 ft | 7 kts | 169° |
| 2026-05-04 10:54 | 1.41857 | 103.87128 | 54 ft | 0 kts | 303° |